createdAt,value
2023-03-05T00:00:51.345Z,-28.4
2023-03-05T00:02:53.321Z,-28.2
2023-03-05T00:04:54.595Z,-27.9
2023-03-05T00:08:57.574Z,-28.3
2023-03-05T00:13:01.408Z,-28.2
2023-03-05T00:15:02.582Z,-53.7
2023-03-05T00:17:04.440Z,-28.2
2023-03-05T00:19:05.735Z,-28.3
2023-03-05T00:23:09.164Z,-28.4
2023-03-05T00:25:10.307Z,-28.3
2023-03-05T00:27:11.452Z,-28.4
2023-03-05T00:29:13.198Z,-28.2
2023-03-05T00:31:14.754Z,-53.6
2023-03-05T00:33:16.642Z,-28.2
2023-03-05T00:35:18.283Z,-28.1
2023-03-05T00:37:19.698Z,-28.3
2023-03-05T00:39:21.173Z,-28.4
2023-03-05T00:41:23.103Z,-28.3
2023-03-05T00:43:25.164Z,-28.3
2023-03-05T00:45:25.741Z,-28
2023-03-05T00:47:27.287Z,-28.2
2023-03-05T00:49:28.725Z,-28.1
2023-03-05T00:51:30.382Z,-28.4
2023-03-05T00:53:31.584Z,-28.4
2023-03-05T00:55:33.518Z,-53.3
2023-03-05T00:57:35.433Z,-28.1
2023-03-05T00:59:36.748Z,-28.5
2023-03-05T01:01:38.472Z,-53.2
2023-03-05T01:07:43.133Z,-28.4
2023-03-05T01:09:44.420Z,-53.2
2023-03-05T01:11:45.923Z,-28.3
2023-03-05T01:13:47.357Z,-28
2023-03-05T01:15:49.398Z,-28.5
2023-03-05T01:17:50.497Z,-53
2023-03-05T01:19:51.859Z,-28.2
2023-03-05T01:21:53.053Z,-28.2
2023-03-05T01:23:54.929Z,-28.4
2023-03-05T01:25:55.968Z,-28
2023-03-05T01:27:57.407Z,-28
2023-03-05T01:29:59.355Z,-28.2
2023-03-05T01:32:00.524Z,-28.3
2023-03-05T01:34:02.104Z,-28.1
2023-03-05T01:36:04.048Z,-28
2023-03-05T01:38:05.227Z,-28.2
2023-03-05T01:40:06.264Z,-28.5
2023-03-05T01:42:08.193Z,-28.2
2023-03-05T01:44:09.979Z,-28.4
2023-03-05T01:46:11.984Z,-28.6
2023-03-05T01:50:14.304Z,-28.3
2023-03-05T01:52:16.117Z,-28.4
2023-03-05T01:54:17.692Z,-28.1
2023-03-05T01:56:19.237Z,-28.5
2023-03-05T01:58:21.048Z,-28.2
2023-03-05T02:00:22.315Z,-28.3
2023-03-05T02:04:26.165Z,-28.1
2023-03-05T02:06:27.434Z,-28.2
2023-03-05T02:08:28.533Z,-28.4
2023-03-05T02:10:30.277Z,-53.4
2023-03-05T02:12:31.324Z,-28.4
2023-03-05T02:14:33.020Z,-28.4
2023-03-05T02:16:43.139Z,-28.2
2023-03-05T02:18:35.702Z,-28.2
2023-03-05T02:20:37.549Z,-27.9
2023-03-05T02:22:39.452Z,-28.3
2023-03-05T02:26:42.055Z,-27.9
2023-03-05T02:28:43.707Z,-28.2
2023-03-05T02:30:44.908Z,-53.3
2023-03-05T02:32:46.262Z,-28.3
2023-03-05T02:36:48.945Z,-28.4
2023-03-05T02:38:50.595Z,-28.2
2023-03-05T02:40:51.631Z,-28.4
2023-03-05T02:42:52.753Z,-28.1
2023-03-05T02:46:55.452Z,-28.3
2023-03-05T02:48:57.458Z,-28.1
2023-03-05T02:50:57.577Z,-28.3
2023-03-05T02:52:58.687Z,-28.5
2023-03-05T02:57:01.970Z,-28
2023-03-05T02:59:03.301Z,-28.3
2023-03-05T03:03:05.824Z,-28.4
2023-03-05T03:05:07.032Z,-28.1
2023-03-05T03:07:08.613Z,-28.4
2023-03-05T03:09:10.039Z,-28.2
2023-03-05T03:15:14.163Z,-28.4
2023-03-05T03:17:15.841Z,-27.9
2023-03-05T03:19:17.503Z,-28.4
2023-03-05T03:21:19.402Z,-53.4
2023-03-05T03:23:20.540Z,-28.2
2023-03-05T03:25:21.739Z,-28
2023-03-05T03:29:24.025Z,-28.2
2023-03-05T03:31:25.098Z,-28.2
2023-03-05T03:33:26.822Z,-28.2
2023-03-05T03:35:28.369Z,-28.5
2023-03-05T03:37:29.713Z,-28.2
2023-03-05T03:39:31.233Z,-28
2023-03-05T03:41:32.769Z,-28.2
2023-03-05T03:43:34.109Z,-28.2
2023-03-05T03:45:35.921Z,-28.4
2023-03-05T03:47:37.592Z,-28
2023-03-05T03:49:38.696Z,-28.6
2023-03-05T03:51:39.998Z,-28
2023-03-05T03:53:42.350Z,-28.5
2023-03-05T03:55:42.996Z,-28.5
2023-03-05T03:57:44.159Z,-28.4
2023-03-05T03:59:46.117Z,-28
2023-03-05T04:01:47.267Z,-28.4
2023-03-05T04:03:48.861Z,-28.4
2023-03-05T04:05:49.962Z,-53.2
2023-03-05T04:07:51.900Z,-28.2
2023-03-05T04:09:53.433Z,-28
2023-03-05T04:13:56.813Z,-28.2
2023-03-05T04:15:58.717Z,-28.3
2023-03-05T04:18:00.253Z,-28.3
2023-03-05T04:20:02.153Z,-28.3
2023-03-05T04:22:03.802Z,-28.5
2023-03-05T04:24:05.513Z,-28.3
2023-03-05T04:26:06.724Z,-28.2
2023-03-05T04:28:08.669Z,-28.2
2023-03-05T04:30:10.424Z,-28.3
2023-03-05T04:32:11.958Z,-28.2
2023-03-05T04:34:13.763Z,-28.2
2023-03-05T04:36:15.343Z,-28
2023-03-05T04:38:17.193Z,-28
2023-03-05T04:40:18.976Z,-28.2
2023-03-05T04:42:20.065Z,-28.2
2023-03-05T04:44:21.208Z,-28.4
2023-03-05T04:46:22.495Z,-28.2
2023-03-05T04:48:23.985Z,-28
2023-03-05T04:50:25.710Z,-28.3
2023-03-05T04:52:26.784Z,-28.5
2023-03-05T04:54:28.740Z,-28.2
2023-03-05T04:56:30.272Z,-28
2023-03-05T04:58:31.345Z,-28
2023-03-05T05:00:32.854Z,-28.4
2023-03-05T05:02:34.112Z,-28
2023-03-05T05:04:35.494Z,-38.59
2023-03-05T05:06:37.370Z,-28.2
2023-03-05T05:08:39.127Z,-28.2
2023-03-05T05:10:40.490Z,-28.2
2023-03-05T05:12:41.931Z,-28
2023-03-05T05:16:45.259Z,-28.2
2023-03-05T05:18:46.762Z,-28.2
2023-03-05T05:20:48.520Z,-28.4
2023-03-05T05:22:49.586Z,-28.4
2023-03-05T05:28:53.523Z,-30.6
2023-03-05T05:29:37.429Z,-28.4
2023-03-05T05:33:40.700Z,-53.1
2023-03-05T05:37:44.155Z,-28.2
2023-03-05T05:39:45.679Z,-28
2023-03-05T05:41:47.637Z,-28.2
2023-03-05T05:43:49.606Z,-37.8
2023-03-05T05:45:51.571Z,-31
2023-03-05T05:47:53.493Z,-28.3
2023-03-05T05:49:54.545Z,-27.9
2023-03-05T05:51:56.181Z,-28.3
2023-03-05T05:53:57.663Z,-27.9
2023-03-05T05:55:59.428Z,-28.2
2023-03-05T05:58:01.353Z,-28.2
2023-03-05T06:00:02.915Z,-28.3
2023-03-05T06:06:07.421Z,-28.3
2023-03-05T06:08:08.822Z,-28.3
2023-03-05T06:10:10.039Z,-28.3
2023-03-05T06:12:11.588Z,-28.1
2023-03-05T06:14:13.366Z,-28
2023-03-05T06:16:15.358Z,-31
2023-03-05T06:18:17.266Z,-35.7
2023-03-05T06:20:19.208Z,-28.2
2023-03-05T06:22:20.690Z,-28.3
2023-03-05T06:24:21.936Z,-28.3
2023-03-05T06:26:23.389Z,-53.4
2023-03-05T06:28:25.014Z,-27.8
2023-03-05T06:30:26.923Z,-28.6
2023-03-05T06:32:28.494Z,-28.4
2023-03-05T06:36:31.092Z,-28.4
2023-03-05T06:38:32.701Z,-28.2
2023-03-05T06:40:34.227Z,-28.1
2023-03-05T06:42:35.319Z,-28.4
2023-03-05T06:44:36.395Z,-28.3
2023-03-05T06:48:39.464Z,-28.3
2023-03-05T06:50:40.910Z,-28.1
2023-03-05T06:52:42.788Z,-28.2
2023-03-05T06:54:44.045Z,-53.3
2023-03-05T06:56:45.871Z,-28.1
2023-03-05T06:58:47.871Z,-28
2023-03-05T07:02:50.682Z,-28.4
2023-03-05T07:04:51.925Z,-53.4
2023-03-05T07:06:53.417Z,-28
2023-03-05T07:08:54.798Z,-53.1
2023-03-05T07:10:56.631Z,-28.3
2023-03-05T07:12:58.086Z,-28.2
2023-03-05T07:14:59.606Z,-45
2023-03-05T07:17:00.737Z,-28.4
2023-03-05T07:19:02.258Z,-28.2
2023-03-05T07:21:03.685Z,-28.4
2023-03-05T07:25:06.592Z,-28.1
2023-03-05T07:27:08.560Z,-28.5
2023-03-05T07:29:10.426Z,-28
2023-03-05T07:31:12.212Z,-53.4
2023-03-05T07:35:14.432Z,-28.4
2023-03-05T07:37:16.145Z,-53.3
2023-03-05T07:39:18.056Z,-28
2023-03-05T07:41:19.937Z,-28.2
2023-03-05T07:47:24.203Z,-45.6
2023-03-05T07:49:26.079Z,-28.3
2023-03-05T07:51:27.220Z,-28.3
2023-03-05T07:53:29.123Z,-53.7
2023-03-05T07:55:30.644Z,-53.5
2023-03-05T07:57:32.544Z,-53.5
2023-03-05T08:01:35.645Z,-28.4
2023-03-05T08:03:37.189Z,-28.3
2023-03-05T08:05:38.888Z,-30.8
2023-03-05T08:07:40.120Z,-28.2
2023-03-05T08:13:45.325Z,-52.9
2023-03-05T08:17:48.997Z,-28.1
2023-03-05T08:19:50.515Z,-28.3
2023-03-05T08:21:52.199Z,-28.3
2023-03-05T08:23:53.979Z,-28.4
2023-03-05T08:27:56.999Z,-32.09
2023-03-05T08:29:58.374Z,-28.4
2023-03-05T08:31:59.499Z,-27.9
2023-03-05T08:34:00.664Z,-26.3
2023-03-05T08:38:03.768Z,-23.4
2023-03-05T08:40:05.199Z,-21.3
2023-03-05T08:42:08.640Z,-18.7
2023-03-05T08:44:08.223Z,-43
2023-03-05T08:46:09.359Z,-43.7
2023-03-05T08:48:10.910Z,-45.2
2023-03-05T08:50:12.656Z,-20.8
2023-03-05T08:52:13.660Z,-18.1
2023-03-05T08:56:16.535Z,-20.4
2023-03-05T09:00:18.902Z,-16.4
2023-03-05T09:02:19.942Z,-39.8
2023-03-05T09:04:21.600Z,-42.8
2023-03-05T09:06:22.703Z,-12.3
2023-03-05T09:12:26.282Z,-7.4
2023-03-05T09:14:27.997Z,-18.5
2023-03-05T09:16:29.796Z,-26
2023-03-05T09:18:30.785Z,3
2023-03-05T09:20:32.279Z,-3.4
2023-03-05T09:22:33.992Z,-20.29
2023-03-05T09:24:35.077Z,5.9
2023-03-05T09:26:36.598Z,7.4
2023-03-05T09:28:37.944Z,6.8
2023-03-05T09:30:39.026Z,3.4
2023-03-05T09:32:40.577Z,14.4
2023-03-05T09:34:41.635Z,7.7
2023-03-05T09:36:51.264Z,13.3
2023-03-05T09:38:44.965Z,13
2023-03-05T09:40:45.938Z,13.6
2023-03-05T09:42:47.041Z,16.2
2023-03-05T09:44:48.192Z,18.7
2023-03-05T09:46:49.453Z,21.2
2023-03-05T09:48:51.025Z,32.59
2023-03-05T09:50:52.665Z,35.2
2023-03-05T09:52:54.357Z,39.3
2023-03-05T09:54:55.425Z,20
2023-03-05T09:56:56.752Z,25
2023-03-05T09:58:58.354Z,28.1
2023-03-05T10:00:59.738Z,51.4
2023-03-05T10:03:01.764Z,14.5
2023-03-05T10:05:02.901Z,46.7
2023-03-05T10:11:06.928Z,64.1
2023-03-05T10:13:08.003Z,58.9
2023-03-05T10:15:09.687Z,39.8
2023-03-05T10:19:11.993Z,40.2
2023-03-05T10:21:13.912Z,66.9
2023-03-05T10:25:16.441Z,66.1
2023-03-05T10:27:17.854Z,30.4
2023-03-05T10:29:19.089Z,51.4
2023-03-05T10:31:20.114Z,44.2
2023-03-05T10:37:23.315Z,58.5
2023-03-05T10:39:24.619Z,48
2023-03-05T10:41:26.365Z,15.4
2023-03-05T10:43:27.430Z,1.2
2023-03-05T10:45:28.463Z,12.1
2023-03-05T10:47:29.855Z,-23
2023-03-05T10:49:31.565Z,-21.6
2023-03-05T10:51:33.190Z,-11.6
2023-03-05T10:53:35.001Z,-15.7
2023-03-05T10:55:36.500Z,11.1
2023-03-05T10:57:38.207Z,-10
2023-03-05T11:01:41.259Z,11.2
2023-03-05T11:03:42.500Z,7.1
2023-03-05T11:05:44.346Z,-21.6
2023-03-05T11:07:46.036Z,2.4
2023-03-05T11:09:47.212Z,-4.3
2023-03-05T11:11:48.324Z,-2.7
2023-03-05T11:13:49.748Z,-1.8
2023-03-05T11:15:50.997Z,-16.29
2023-03-05T11:17:52.611Z,-4
2023-03-05T11:19:54.431Z,-25.2
2023-03-05T11:23:57.886Z,-16
2023-03-05T11:25:59.049Z,-32
2023-03-05T11:28:00.371Z,-15.4
2023-03-05T11:30:02.077Z,-20.8
2023-03-05T11:34:05.438Z,-54
2023-03-05T11:36:07.287Z,-53.9
2023-03-05T11:38:08.703Z,-28.5
2023-03-05T11:40:10.014Z,-53.9
2023-03-05T11:42:11.821Z,-54
2023-03-05T11:44:13.620Z,-38.9
2023-03-05T11:46:14.828Z,-51.3
2023-03-05T11:48:16.180Z,-28.2
2023-03-05T11:50:17.277Z,-54
2023-03-05T11:52:18.908Z,-28.3
2023-03-05T11:54:20.146Z,-28.2
2023-03-05T11:56:21.322Z,-28.2
2023-03-05T11:58:22.967Z,-28.4
2023-03-05T12:00:24.338Z,-28.2
2023-03-05T12:02:25.422Z,-47.6
2023-03-05T12:04:26.990Z,-21.6
2023-03-05T12:06:28.825Z,-17.29
2023-03-05T12:08:30.119Z,-42.2
2023-03-05T12:10:32.067Z,-20.4
2023-03-05T12:12:33.692Z,-27.3
2023-03-05T12:14:35.173Z,-28.5
2023-03-05T12:17:20.878Z,-54
2023-03-05T12:19:22.466Z,-54
2023-03-05T12:21:23.562Z,-24.6
2023-03-05T12:23:25.361Z,-27.7
2023-03-05T12:25:27.077Z,-41.8
2023-03-05T12:27:28.564Z,-16.29
2023-03-05T12:29:30.399Z,-18.5
2023-03-05T12:31:31.614Z,-46.3
2023-03-05T12:33:33.414Z,-20.5
2023-03-05T12:35:34.824Z,-39.7
2023-03-05T12:37:36.417Z,-10.4
2023-03-05T12:39:37.959Z,-15.8
2023-03-05T12:41:39.591Z,-29.5
2023-03-05T12:43:40.881Z,-19.29
2023-03-05T12:45:42.315Z,-45.3
2023-03-05T12:49:44.664Z,-33.09
2023-03-05T12:51:46.386Z,-6.9
2023-03-05T12:53:47.405Z,-30.5
2023-03-05T12:55:48.498Z,-33.3
2023-03-05T12:59:51.167Z,-9.6
2023-03-05T13:01:52.971Z,-10.1
2023-03-05T13:03:54.745Z,-14
2023-03-05T13:05:56.437Z,-18.9
2023-03-05T13:12:01.540Z,-28.2
2023-03-05T13:14:02.904Z,-28.5
2023-03-05T13:16:04.546Z,-53.9
2023-03-05T13:18:05.369Z,-28.3
2023-03-05T13:20:06.954Z,-53.1
2023-03-05T13:22:08.766Z,-21.4
2023-03-05T13:24:09.850Z,-46.9
2023-03-05T13:26:10.903Z,-42.8
2023-03-05T13:28:12.471Z,-39.5
2023-03-05T13:32:15.418Z,-40.3
2023-03-05T13:36:18.137Z,-5.1
2023-03-05T13:38:19.981Z,-21.7
2023-03-05T13:42:22.946Z,-15
2023-03-05T13:44:24.554Z,-19.7
2023-03-05T13:46:25.928Z,-24.6
2023-03-05T13:48:27.090Z,-2.4
2023-03-05T13:52:29.885Z,-31.9
2023-03-05T13:54:31.605Z,-37.3
2023-03-05T13:56:32.675Z,-13.4
2023-03-05T13:58:34.084Z,-14.2
2023-03-05T14:02:37.396Z,-19.29
2023-03-05T14:04:38.781Z,-42
2023-03-05T14:08:41.633Z,-20.2
2023-03-05T14:10:42.576Z,-47.2
2023-03-05T14:12:44.112Z,-28.6
2023-03-05T14:14:45.294Z,-27.6
2023-03-05T14:16:46.358Z,-52.8
2023-03-05T14:20:48.482Z,-46.8
2023-03-05T14:24:51.529Z,-28.3
2023-03-05T14:26:53.399Z,-36.7
2023-03-05T14:28:54.606Z,-52.6
2023-03-05T14:30:56.124Z,-53.9
2023-03-05T14:37:00.765Z,-53.9
2023-03-05T14:39:02.505Z,-53.8
2023-03-05T14:41:03.718Z,-53.8
2023-03-05T14:43:05.102Z,-53.8
2023-03-05T14:45:06.731Z,-28.3
2023-03-05T14:47:07.981Z,-28.5
2023-03-05T14:49:09.348Z,-35.09
2023-03-05T14:51:10.593Z,-53.8
2023-03-05T14:53:12.553Z,-54
2023-03-05T14:55:13.658Z,-44.4
2023-03-05T14:57:15.450Z,-28
2023-03-05T14:59:16.613Z,-53.8
2023-03-05T15:01:18.206Z,-28.5
2023-03-05T15:03:19.914Z,-52.1
2023-03-05T15:05:21.859Z,-36.09
2023-03-05T15:07:23.738Z,-28.6
2023-03-05T15:09:24.763Z,-28.5
2023-03-05T15:11:26.160Z,-54.2
2023-03-05T15:13:28.083Z,-30.4
2023-03-05T15:15:29.979Z,-30.9
2023-03-05T15:19:32.734Z,-29.8
2023-03-05T15:21:35.375Z,-34.2
2023-03-05T15:23:36.203Z,-28.6
2023-03-05T15:25:37.260Z,-53.9
2023-03-05T15:27:38.315Z,-53.9
2023-03-05T15:29:40.157Z,-28.4
2023-03-05T15:33:42.908Z,-37.2
2023-03-05T15:35:44.207Z,-42.2
2023-03-05T15:37:45.467Z,-53.9
2023-03-05T15:39:46.942Z,-35.8
2023-03-05T15:41:48.738Z,-53.9
2023-03-05T15:43:50.308Z,-53.8
2023-03-05T15:45:51.355Z,-53.9
2023-03-05T15:47:52.764Z,-53.7
2023-03-05T15:49:53.960Z,-28.5
2023-03-05T15:51:55.794Z,-28.4
2023-03-05T15:55:59.364Z,-28.3
2023-03-05T15:58:00.505Z,-50.4
2023-03-05T16:00:02.413Z,-28.4
2023-03-05T16:02:03.516Z,-53.8
2023-03-05T16:06:05.965Z,-31.5
2023-03-05T16:08:07.318Z,-53.9
2023-03-05T16:10:09.067Z,-53.8
2023-03-05T16:12:10.134Z,-53.7
2023-03-05T16:16:13.202Z,-53.9
2023-03-05T16:18:14.396Z,-28.3
2023-03-05T16:20:16.181Z,-28.2
2023-03-05T16:22:17.274Z,-28.1
2023-03-05T16:26:19.937Z,-28
2023-03-05T16:28:21.639Z,-28.2
2023-03-05T16:32:24.661Z,-28.5
2023-03-05T16:34:26.320Z,-28.3
2023-03-05T16:36:27.955Z,-28.2
2023-03-05T16:38:29.320Z,-28.5
2023-03-05T16:44:32.596Z,-28.5
2023-03-05T16:48:35.870Z,-28.3
2023-03-05T16:50:37.560Z,-28.1
2023-03-05T16:52:38.925Z,-28.4
2023-03-05T16:54:40.206Z,-28.4
2023-03-05T16:56:42.192Z,-53.5
2023-03-05T16:58:43.813Z,-28.3
2023-03-05T17:00:45.393Z,-28.4
2023-03-05T17:02:47.288Z,-28.3
2023-03-05T17:04:49.022Z,-28.2
2023-03-05T17:06:50.613Z,-28
2023-03-05T17:08:52.056Z,-28.4
2023-03-05T17:10:53.325Z,-28.5
2023-03-05T17:12:55.246Z,-28.2
2023-03-05T17:14:56.759Z,-28.3
2023-03-05T17:16:58.610Z,-28.4
2023-03-05T17:18:59.667Z,-28.2
2023-03-05T17:21:01.226Z,-28.5
2023-03-05T17:23:02.686Z,-28.4
2023-03-05T17:25:04.382Z,-28.2
2023-03-05T17:27:06.034Z,-28.4
2023-03-05T17:31:08.842Z,-28.3
2023-03-05T17:33:10.687Z,-28.2
2023-03-05T17:35:11.966Z,-28.3
2023-03-05T17:37:13.184Z,-28.2
2023-03-05T17:41:16.038Z,-28.2
2023-03-05T17:43:17.437Z,-28.3
2023-03-05T17:45:18.712Z,-28.3
2023-03-05T17:47:20.705Z,-27.9
2023-03-05T17:49:22.431Z,-52.9
2023-03-05T17:51:23.468Z,-28.4
2023-03-05T17:53:24.735Z,-28.1
2023-03-05T17:55:26.589Z,-53.5
2023-03-05T17:57:28.496Z,-28.3
2023-03-05T17:59:29.583Z,-28.3
2023-03-05T18:01:31.542Z,-28.3
2023-03-05T18:03:32.939Z,-28.3
2023-03-05T18:05:34.609Z,-28.3
2023-03-05T18:07:35.823Z,-28.5
2023-03-05T18:09:37.036Z,-28.2
2023-03-05T18:11:38.474Z,-28.3
2023-03-05T18:13:40.142Z,-28.5
2023-03-05T18:15:41.282Z,-28
2023-03-05T18:19:44.715Z,-28.5
2023-03-05T18:21:46.375Z,-28.4
2023-03-05T18:25:49.316Z,-28.4
2023-03-05T18:27:51.019Z,-28.5
2023-03-05T18:29:52.633Z,-41.8
2023-03-05T18:31:53.667Z,-28.4
2023-03-05T18:33:54.675Z,-28.5
2023-03-05T18:35:56.008Z,-28.2
2023-03-05T18:41:59.419Z,-28.5
2023-03-05T18:44:00.857Z,-28.3
2023-03-05T18:46:02.868Z,-28.3
2023-03-05T18:48:03.906Z,-28.4
2023-03-05T18:50:05.885Z,-53.4
2023-03-05T18:52:07.656Z,-28.3
2023-03-05T18:54:09.408Z,-28.5
2023-03-05T18:56:10.590Z,-28.5
2023-03-05T18:58:11.978Z,-28.1
2023-03-05T19:02:59.456Z,-53.7
2023-03-05T19:07:02.485Z,-53.8
2023-03-05T19:09:03.809Z,-28.3
2023-03-05T19:11:04.906Z,-28.2
2023-03-05T19:13:05.947Z,-28.4
2023-03-05T19:17:08.906Z,-28.4
2023-03-05T19:19:10.414Z,-28.5
2023-03-05T19:21:12.234Z,-53.6
2023-03-05T19:23:13.948Z,-28.4
2023-03-05T19:25:15.838Z,-28.5
2023-03-05T19:27:17.218Z,-28.4
2023-03-05T19:29:19.089Z,-53.5
2023-03-05T19:33:24.068Z,-28.3
2023-03-05T19:35:23.338Z,-28
2023-03-05T19:37:25.123Z,-53.5
2023-03-05T19:39:26.976Z,-28.4
2023-03-05T19:45:31.599Z,-53.7
2023-03-05T19:47:32.783Z,-28.5
2023-03-05T19:49:34.073Z,-28.3
2023-03-05T19:51:35.010Z,-28.5
2023-03-05T19:53:36.874Z,-28.4
2023-03-05T19:55:38.432Z,-30
2023-03-05T19:57:39.503Z,-28.2
2023-03-05T19:59:41.096Z,-28.2
2023-03-05T20:01:42.339Z,-28.4
2023-03-05T20:03:44.037Z,-28.3
2023-03-05T20:05:45.739Z,-28.8
2023-03-05T20:09:48.844Z,-28.2
2023-03-05T20:11:49.907Z,-28
2023-03-05T20:13:51.126Z,-34.8
2023-03-05T20:15:52.262Z,-28.8
2023-03-05T20:17:53.442Z,-28.7
2023-03-05T20:19:55.407Z,-52.9
2023-03-05T20:21:56.900Z,-28.5
2023-03-05T20:23:58.104Z,-28.5
2023-03-05T20:25:59.645Z,-28.5
2023-03-05T20:28:00.919Z,-28.6
2023-03-05T20:32:03.640Z,-28.6
2023-03-05T20:34:05.046Z,-28.6
2023-03-05T20:36:06.719Z,-28.7
2023-03-05T20:38:08.211Z,-53.9
2023-03-05T20:42:11.429Z,-53.8
2023-03-05T20:44:12.702Z,-28.7
2023-03-05T20:48:15.185Z,-28.8
2023-03-05T20:50:16.390Z,-28.8
2023-03-05T20:52:18.029Z,-28.7
2023-03-05T20:54:19.907Z,-28.7
2023-03-05T20:56:21.709Z,-43.8
2023-03-05T20:58:23.284Z,-28.5
2023-03-05T21:00:24.448Z,-28.8
2023-03-05T21:02:25.475Z,-28.7
2023-03-05T21:04:27.088Z,-29
2023-03-05T21:06:28.841Z,-28.8
2023-03-05T21:08:30.115Z,-28.6
2023-03-05T21:10:31.526Z,-28.8
2023-03-05T21:12:32.788Z,-28.6
2023-03-05T21:14:34.352Z,-28.7
2023-03-05T21:16:35.748Z,-28.7
2023-03-05T21:18:36.968Z,-53.9
2023-03-05T21:20:38.313Z,-53.6
2023-03-05T21:22:39.516Z,-28.5
2023-03-05T21:24:40.778Z,-28.6
2023-03-05T21:26:41.759Z,-28.8
2023-03-05T21:30:44.653Z,-28.6
2023-03-05T21:32:46.251Z,-28.8
2023-03-05T21:34:47.392Z,-28.6
2023-03-05T21:36:48.694Z,-53.5
2023-03-05T21:42:52.912Z,-28.6
2023-03-05T21:44:54.416Z,-53.6
2023-03-05T21:46:55.982Z,-28.5
2023-03-05T21:48:57.947Z,-28.3
2023-03-05T21:50:59.455Z,-28.5
2023-03-05T21:53:00.836Z,-28.6
2023-03-05T21:57:03.855Z,-28.8
2023-03-05T21:59:05.102Z,-28.5
2023-03-05T22:01:06.204Z,-28.8
2023-03-05T22:03:08.109Z,-53.9
2023-03-05T22:09:12.237Z,-28.8
2023-03-05T22:11:13.697Z,-28.6
2023-03-05T22:13:15.290Z,-28.6
2023-03-05T22:15:16.811Z,-28.6
2023-03-05T22:17:18.317Z,-28.5
2023-03-05T22:19:20.291Z,-28.5
2023-03-05T22:21:22.015Z,-28.4
2023-03-05T22:23:23.363Z,-28.5
2023-03-05T22:25:24.623Z,-28.7
2023-03-05T22:27:26.543Z,-28.6
2023-03-05T22:29:27.650Z,-28.5
2023-03-05T22:31:29.696Z,-28.8
2023-03-05T22:33:30.872Z,-28.7
2023-03-05T22:35:32.227Z,-28.6
2023-03-05T22:37:33.281Z,-28.7
2023-03-05T22:39:34.337Z,-28.5
2023-03-05T22:41:35.569Z,-28.8
2023-03-05T22:43:37.487Z,-28.7
2023-03-05T22:45:39.050Z,-28.4
2023-03-05T22:47:40.916Z,-28.6
2023-03-05T22:49:42.209Z,-28.7
2023-03-05T22:51:44.175Z,-28.5
2023-03-05T22:53:45.540Z,-28.4
2023-03-05T22:55:46.856Z,-27.2
2023-03-05T22:57:48.444Z,-27.3
2023-03-05T22:59:50.322Z,-53.9
2023-03-05T23:01:51.452Z,-28.5
2023-03-05T23:03:52.616Z,-28.7
2023-03-05T23:05:54.840Z,-28.6
2023-03-05T23:07:55.760Z,-28.6
2023-03-05T23:14:00.819Z,-28.6
2023-03-05T23:16:02.127Z,-28.5
2023-03-05T23:18:03.412Z,-28.4
2023-03-05T23:20:05.066Z,-53.4
2023-03-05T23:22:06.349Z,-28.3
2023-03-05T23:24:07.987Z,-28.4
2023-03-05T23:26:09.808Z,-28.4
2023-03-05T23:28:11.436Z,-27.9
2023-03-05T23:30:12.663Z,-28.1
2023-03-05T23:34:15.374Z,-28.1
2023-03-05T23:36:18.262Z,-28.2
2023-03-05T23:38:19.134Z,-28.5
2023-03-05T23:40:20.374Z,-28.3
2023-03-05T23:44:23.322Z,-28.3
2023-03-05T23:46:25.187Z,-28.3
2023-03-05T23:48:26.355Z,-28.4
2023-03-05T23:50:27.761Z,-28.3
2023-03-05T23:54:31.030Z,-28.2
2023-03-05T23:56:32.993Z,-28.5
2023-03-05T23:58:34.037Z,-28.3
